sensor_id;sensor_type;location;lat;lon;timestamp;P1;durP1;ratioP1;P2;durP2;ratioP2
14890;SDS011;7537;48.014;11.590;2023-09-12T00:03:08;7.61;;;7.64;;
14890;SDS011;7537;48.014;11.590;2023-09-12T00:08:35;8.72;;;8.80;;
14890;SDS011;7537;48.014;11.590;2023-09-12T00:14:03;8.59;;;8.10;;
14890;SDS011;7537;48.014;11.590;2023-09-12T00:19:30;8.58;;;8.42;;
14890;SDS011;7537;48.014;11.590;2023-09-12T00:24:57;7.26;;;7.27;;
14890;SDS011;7537;48.014;11.590;2023-09-12T00:30:30;8.16;;;7.93;;
14890;SDS011;7537;48.014;11.590;2023-09-12T00:35:58;7.97;;;7.14;;
14890;SDS011;7537;48.014;11.590;2023-09-12T00:41:25;7.84;;;7.18;;
14890;SDS011;7537;48.014;11.590;2023-09-12T00:46:52;7.39;;;7.44;;
14890;SDS011;7537;48.014;11.590;2023-09-12T00:52:21;9.86;;;8.47;;
14890;SDS011;7537;48.014;11.590;2023-09-12T00:57:49;7.02;;;7.18;;
14890;SDS011;7537;48.014;11.590;2023-09-12T01:03:18;10.89;;;8.50;;
14890;SDS011;7537;48.014;11.590;2023-09-12T01:08:45;10.17;;;8.26;;
14890;SDS011;7537;48.014;11.590;2023-09-12T01:14:13;8.42;;;7.01;;
14890;SDS011;7537;48.014;11.590;2023-09-12T01:19:40;13.69;;;7.83;;
14890;SDS011;7537;48.014;11.590;2023-09-12T01:25:11;7.64;;;7.47;;
14890;SDS011;7537;48.014;11.590;2023-09-12T01:30:45;8.99;;;7.89;;
14890;SDS011;7537;48.014;11.590;2023-09-12T01:36:12;7.58;;;6.64;;
14890;SDS011;7537;48.014;11.590;2023-09-12T01:41:40;10.96;;;8.19;;
14890;SDS011;7537;48.014;11.590;2023-09-12T01:47:10;7.74;;;7.76;;
14890;SDS011;7537;48.014;11.590;2023-09-12T01:52:37;7.84;;;7.94;;
14890;SDS011;7537;48.014;11.590;2023-09-12T01:58:05;7.84;;;7.63;;
14890;SDS011;7537;48.014;11.590;2023-09-12T02:03:32;9.23;;;7.49;;
14890;SDS011;7537;48.014;11.590;2023-09-12T02:09:00;7.68;;;7.69;;
14890;SDS011;7537;48.014;11.590;2023-09-12T02:14:27;7.22;;;7.38;;
14890;SDS011;7537;48.014;11.590;2023-09-12T02:19:54;6.95;;;7.14;;
14890;SDS011;7537;48.014;11.590;2023-09-12T02:25:24;9.36;;;7.14;;
14890;SDS011;7537;48.014;11.590;2023-09-12T02:30:55;8.43;;;7.25;;
14890;SDS011;7537;48.014;11.590;2023-09-12T02:36:22;7.88;;;7.66;;
14890;SDS011;7537;48.014;11.590;2023-09-12T02:41:49;6.79;;;6.93;;
14890;SDS011;7537;48.014;11.590;2023-09-12T02:47:17;13.36;;;7.31;;
14890;SDS011;7537;48.014;11.590;2023-09-12T02:52:44;8.47;;;7.22;;
14890;SDS011;7537;48.014;11.590;2023-09-12T02:58:13;7.58;;;7.60;;
14890;SDS011;7537;48.014;11.590;2023-09-12T03:03:40;7.87;;;7.84;;
14890;SDS011;7537;48.014;11.590;2023-09-12T03:09:08;7.46;;;7.21;;
14890;SDS011;7537;48.014;11.590;2023-09-12T03:14:35;7.54;;;7.29;;
14890;SDS011;7537;48.014;11.590;2023-09-12T03:20:03;6.82;;;6.82;;
14890;SDS011;7537;48.014;11.590;2023-09-12T03:25:34;7.46;;;7.42;;
14890;SDS011;7537;48.014;11.590;2023-09-12T03:31:05;6.97;;;6.97;;
14890;SDS011;7537;48.014;11.590;2023-09-12T03:36:35;8.16;;;7.18;;
14890;SDS011;7537;48.014;11.590;2023-09-12T03:42:02;7.21;;;7.20;;
14890;SDS011;7537;48.014;11.590;2023-09-12T03:47:29;9.06;;;7.47;;
14890;SDS011;7537;48.014;11.590;2023-09-12T03:52:57;8.76;;;7.33;;
14890;SDS011;7537;48.014;11.590;2023-09-12T03:58:24;7.97;;;8.01;;
14890;SDS011;7537;48.014;11.590;2023-09-12T04:03:51;8.73;;;7.89;;
14890;SDS011;7537;48.014;11.590;2023-09-12T04:09:18;8.34;;;7.98;;
14890;SDS011;7537;48.014;11.590;2023-09-12T04:14:48;8.07;;;7.79;;
14890;SDS011;7537;48.014;11.590;2023-09-12T04:20:16;11.16;;;7.61;;
14890;SDS011;7537;48.014;11.590;2023-09-12T04:25:45;8.14;;;7.33;;
14890;SDS011;7537;48.014;11.590;2023-09-12T04:31:16;9.06;;;8.91;;
14890;SDS011;7537;48.014;11.590;2023-09-12T04:36:43;6.98;;;6.87;;
14890;SDS011;7537;48.014;11.590;2023-09-12T04:42:10;10.37;;;7.57;;
14890;SDS011;7537;48.014;11.590;2023-09-12T04:47:38;9.02;;;7.73;;
14890;SDS011;7537;48.014;11.590;2023-09-12T04:53:05;8.06;;;7.11;;
14890;SDS011;7537;48.014;11.590;2023-09-12T04:58:32;9.20;;;8.08;;
14890;SDS011;7537;48.014;11.590;2023-09-12T05:04:00;9.11;;;7.32;;
14890;SDS011;7537;48.014;11.590;2023-09-12T05:09:28;6.76;;;6.94;;
14890;SDS011;7537;48.014;11.590;2023-09-12T05:14:55;9.22;;;8.13;;
14890;SDS011;7537;48.014;11.590;2023-09-12T05:20:27;7.68;;;7.71;;
14890;SDS011;7537;48.014;11.590;2023-09-12T05:25:54;7.42;;;7.18;;
14890;SDS011;7537;48.014;11.590;2023-09-12T05:31:25;8.99;;;7.57;;
14890;SDS011;7537;48.014;11.590;2023-09-12T05:36:52;9.17;;;8.09;;
14890;SDS011;7537;48.014;11.590;2023-09-12T05:42:20;6.92;;;7.04;;
14890;SDS011;7537;48.014;11.590;2023-09-12T05:47:48;7.47;;;7.38;;
14890;SDS011;7537;48.014;11.590;2023-09-12T05:53:15;8.21;;;7.26;;
14890;SDS011;7537;48.014;11.590;2023-09-12T05:58:46;6.74;;;6.89;;
14890;SDS011;7537;48.014;11.590;2023-09-12T06:04:13;6.74;;;6.88;;
14890;SDS011;7537;48.014;11.590;2023-09-12T06:09:48;9.63;;;6.77;;
14890;SDS011;7537;48.014;11.590;2023-09-12T06:15:15;6.01;;;6.16;;
14890;SDS011;7537;48.014;11.590;2023-09-12T06:20:43;6.82;;;6.47;;
14890;SDS011;7537;48.014;11.590;2023-09-12T06:26:11;6.09;;;5.92;;
14890;SDS011;7537;48.014;11.590;2023-09-12T06:31:41;7.71;;;5.63;;
14890;SDS011;7537;48.014;11.590;2023-09-12T06:37:11;7.31;;;7.18;;
14890;SDS011;7537;48.014;11.590;2023-09-12T06:42:38;6.99;;;7.02;;
14890;SDS011;7537;48.014;11.590;2023-09-12T06:48:07;7.11;;;7.30;;
14890;SDS011;7537;48.014;11.590;2023-09-12T06:53:35;7.02;;;7.10;;
14890;SDS011;7537;48.014;11.590;2023-09-12T06:59:02;10.18;;;7.41;;
14890;SDS011;7537;48.014;11.590;2023-09-12T07:04:30;8.08;;;6.74;;
14890;SDS011;7537;48.014;11.590;2023-09-12T07:09:57;7.56;;;7.12;;
14890;SDS011;7537;48.014;11.590;2023-09-12T07:15:24;6.41;;;6.59;;
14890;SDS011;7537;48.014;11.590;2023-09-12T07:20:57;6.92;;;7.06;;
14890;SDS011;7537;48.014;11.590;2023-09-12T07:26:24;6.47;;;6.62;;
14890;SDS011;7537;48.014;11.590;2023-09-12T07:31:55;6.04;;;5.99;;
14890;SDS011;7537;48.014;11.590;2023-09-12T07:37:23;10.18;;;6.57;;
14890;SDS011;7537;48.014;11.590;2023-09-12T07:42:52;6.32;;;6.47;;
14890;SDS011;7537;48.014;11.590;2023-09-12T07:48:21;6.86;;;6.03;;
14890;SDS011;7537;48.014;11.590;2023-09-12T07:53:51;6.86;;;6.44;;
14890;SDS011;7537;48.014;11.590;2023-09-12T07:59:18;7.77;;;6.66;;
14890;SDS011;7537;48.014;11.590;2023-09-12T08:04:46;6.90;;;6.62;;
14890;SDS011;7537;48.014;11.590;2023-09-12T08:10:13;7.20;;;7.21;;
14890;SDS011;7537;48.014;11.590;2023-09-12T08:15:41;6.53;;;5.83;;
14890;SDS011;7537;48.014;11.590;2023-09-12T08:21:09;6.97;;;6.71;;
14890;SDS011;7537;48.014;11.590;2023-09-12T08:26:40;5.98;;;6.12;;
14890;SDS011;7537;48.014;11.590;2023-09-12T08:32:13;6.83;;;6.83;;
14890;SDS011;7537;48.014;11.590;2023-09-12T08:37:40;6.83;;;6.61;;
14890;SDS011;7537;48.014;11.590;2023-09-12T08:43:08;7.02;;;6.63;;
14890;SDS011;7537;48.014;11.590;2023-09-12T08:48:36;7.16;;;7.02;;
14890;SDS011;7537;48.014;11.590;2023-09-12T08:54:04;10.85;;;6.96;;
14890;SDS011;7537;48.014;11.590;2023-09-12T08:59:32;8.29;;;7.32;;
14890;SDS011;7537;48.014;11.590;2023-09-12T09:05:00;7.43;;;6.49;;
14890;SDS011;7537;48.014;11.590;2023-09-12T09:10:28;6.26;;;6.19;;
14890;SDS011;7537;48.014;11.590;2023-09-12T09:16:10;7.18;;;6.99;;
14890;SDS011;7537;48.014;11.590;2023-09-12T09:21:38;6.29;;;6.45;;
14890;SDS011;7537;48.014;11.590;2023-09-12T09:27:06;7.20;;;6.20;;
14890;SDS011;7537;48.014;11.590;2023-09-12T09:32:37;8.61;;;6.82;;
14890;SDS011;7537;48.014;11.590;2023-09-12T09:38:05;7.21;;;6.82;;
14890;SDS011;7537;48.014;11.590;2023-09-12T09:43:33;7.86;;;6.31;;
14890;SDS011;7537;48.014;11.590;2023-09-12T09:49:00;6.77;;;6.68;;
14890;SDS011;7537;48.014;11.590;2023-09-12T09:54:28;7.12;;;7.21;;
14890;SDS011;7537;48.014;11.590;2023-09-12T09:59:55;8.09;;;7.04;;
14890;SDS011;7537;48.014;11.590;2023-09-12T10:05:22;6.57;;;6.17;;
14890;SDS011;7537;48.014;11.590;2023-09-12T10:10:50;6.21;;;6.36;;
14890;SDS011;7537;48.014;11.590;2023-09-12T10:16:18;6.26;;;6.41;;
14890;SDS011;7537;48.014;11.590;2023-09-12T10:21:48;5.12;;;5.06;;
14890;SDS011;7537;48.014;11.590;2023-09-12T10:27:18;5.53;;;5.64;;
14890;SDS011;7537;48.014;11.590;2023-09-12T10:32:49;5.73;;;5.70;;
14890;SDS011;7537;48.014;11.590;2023-09-12T10:38:16;5.93;;;5.61;;
14890;SDS011;7537;48.014;11.590;2023-09-12T10:43:45;6.22;;;6.12;;
14890;SDS011;7537;48.014;11.590;2023-09-12T10:49:15;7.93;;;5.78;;
14890;SDS011;7537;48.014;11.590;2023-09-12T10:54:42;9.23;;;6.05;;
14890;SDS011;7537;48.014;11.590;2023-09-12T11:00:11;4.72;;;4.91;;
14890;SDS011;7537;48.014;11.590;2023-09-12T11:05:49;5.64;;;5.69;;
14890;SDS011;7537;48.014;11.590;2023-09-12T11:11:17;5.67;;;5.82;;
14890;SDS011;7537;48.014;11.590;2023-09-12T11:22:33;6.11;;;6.14;;
14890;SDS011;7537;48.014;11.590;2023-09-12T11:28:08;5.88;;;5.99;;
14890;SDS011;7537;48.014;11.590;2023-09-12T11:33:41;6.04;;;6.01;;
14890;SDS011;7537;48.014;11.590;2023-09-12T11:39:22;5.91;;;5.23;;
14890;SDS011;7537;48.014;11.590;2023-09-12T11:44:51;5.28;;;5.13;;
14890;SDS011;7537;48.014;11.590;2023-09-12T11:50:37;7.14;;;5.64;;
14890;SDS011;7537;48.014;11.590;2023-09-12T11:56:04;5.78;;;5.75;;
14890;SDS011;7537;48.014;11.590;2023-09-12T12:01:32;5.39;;;5.22;;
14890;SDS011;7537;48.014;11.590;2023-09-12T12:06:59;5.35;;;5.34;;
14890;SDS011;7537;48.014;11.590;2023-09-12T12:12:27;4.98;;;5.11;;
14890;SDS011;7537;48.014;11.590;2023-09-12T12:17:55;4.87;;;4.89;;
14890;SDS011;7537;48.014;11.590;2023-09-12T12:23:22;4.58;;;4.69;;
14890;SDS011;7537;48.014;11.590;2023-09-12T12:28:50;5.12;;;5.31;;
14890;SDS011;7537;48.014;11.590;2023-09-12T12:34:31;4.48;;;4.73;;
14890;SDS011;7537;48.014;11.590;2023-09-12T12:40:00;5.69;;;4.68;;
14890;SDS011;7537;48.014;11.590;2023-09-12T12:45:27;5.04;;;5.05;;
14890;SDS011;7537;48.014;11.590;2023-09-12T12:50:55;5.06;;;5.10;;
14890;SDS011;7537;48.014;11.590;2023-09-12T12:56:26;3.81;;;3.96;;
14890;SDS011;7537;48.014;11.590;2023-09-12T13:01:55;4.84;;;4.38;;
14890;SDS011;7537;48.014;11.590;2023-09-12T13:07:22;5.68;;;5.06;;
14890;SDS011;7537;48.014;11.590;2023-09-12T13:12:50;4.54;;;4.72;;
14890;SDS011;7537;48.014;11.590;2023-09-12T13:18:18;5.39;;;5.47;;
14890;SDS011;7537;48.014;11.590;2023-09-12T13:23:46;4.39;;;4.54;;
14890;SDS011;7537;48.014;11.590;2023-09-12T13:29:13;7.67;;;4.93;;
14890;SDS011;7537;48.014;11.590;2023-09-12T13:34:44;4.34;;;4.45;;
14890;SDS011;7537;48.014;11.590;2023-09-12T13:40:11;4.73;;;4.62;;
14890;SDS011;7537;48.014;11.590;2023-09-12T13:45:39;4.70;;;4.82;;
14890;SDS011;7537;48.014;11.590;2023-09-12T13:51:38;3.94;;;3.95;;
14890;SDS011;7537;48.014;11.590;2023-09-12T13:57:05;4.27;;;4.34;;
14890;SDS011;7537;48.014;11.590;2023-09-12T14:02:32;4.13;;;4.26;;
14890;SDS011;7537;48.014;11.590;2023-09-12T14:08:00;3.26;;;3.43;;
14890;SDS011;7537;48.014;11.590;2023-09-12T14:13:27;3.67;;;3.73;;
14890;SDS011;7537;48.014;11.590;2023-09-12T14:18:54;4.11;;;4.07;;
14890;SDS011;7537;48.014;11.590;2023-09-12T14:24:25;3.91;;;3.84;;
14890;SDS011;7537;48.014;11.590;2023-09-12T14:30:03;3.27;;;3.43;;
14890;SDS011;7537;48.014;11.590;2023-09-12T14:35:34;3.94;;;4.12;;
14890;SDS011;7537;48.014;11.590;2023-09-12T14:41:01;4.67;;;3.96;;
14890;SDS011;7537;48.014;11.590;2023-09-12T14:46:29;4.67;;;4.56;;
14890;SDS011;7537;48.014;11.590;2023-09-12T14:51:56;4.42;;;3.98;;
14890;SDS011;7537;48.014;11.590;2023-09-12T14:57:26;3.94;;;3.98;;
14890;SDS011;7537;48.014;11.590;2023-09-12T15:02:53;3.81;;;3.89;;
14890;SDS011;7537;48.014;11.590;2023-09-12T15:08:21;5.21;;;4.03;;
14890;SDS011;7537;48.014;11.590;2023-09-12T15:13:48;4.47;;;4.15;;
14890;SDS011;7537;48.014;11.590;2023-09-12T15:19:17;4.30;;;4.46;;
14890;SDS011;7537;48.014;11.590;2023-09-12T15:24:44;6.48;;;6.47;;
14890;SDS011;7537;48.014;11.590;2023-09-12T15:30:13;6.33;;;6.38;;
14890;SDS011;7537;48.014;11.590;2023-09-12T15:35:44;8.44;;;6.88;;
14890;SDS011;7537;48.014;11.590;2023-09-12T15:41:11;8.63;;;7.75;;
14890;SDS011;7537;48.014;11.590;2023-09-12T15:46:39;6.67;;;6.64;;
14890;SDS011;7537;48.014;11.590;2023-09-12T15:52:06;7.01;;;7.18;;
14890;SDS011;7537;48.014;11.590;2023-09-12T15:57:35;8.76;;;8.77;;
14890;SDS011;7537;48.014;11.590;2023-09-12T16:03:03;6.64;;;6.89;;
14890;SDS011;7537;48.014;11.590;2023-09-12T16:08:31;7.13;;;6.96;;
14890;SDS011;7537;48.014;11.590;2023-09-12T16:13:58;7.26;;;7.24;;
14890;SDS011;7537;48.014;11.590;2023-09-12T16:19:33;7.46;;;7.39;;
14890;SDS011;7537;48.014;11.590;2023-09-12T16:25:00;7.08;;;7.13;;
14890;SDS011;7537;48.014;11.590;2023-09-12T16:30:27;7.73;;;7.30;;
14890;SDS011;7537;48.014;11.590;2023-09-12T16:35:58;7.90;;;7.46;;
14890;SDS011;7537;48.014;11.590;2023-09-12T16:41:25;8.78;;;7.27;;
14890;SDS011;7537;48.014;11.590;2023-09-12T16:46:53;8.75;;;6.43;;
14890;SDS011;7537;48.014;11.590;2023-09-12T16:52:20;8.56;;;8.39;;
14890;SDS011;7537;48.014;11.590;2023-09-12T16:57:47;8.31;;;8.01;;
14890;SDS011;7537;48.014;11.590;2023-09-12T17:03:15;12.33;;;7.80;;
14890;SDS011;7537;48.014;11.590;2023-09-12T17:08:44;8.64;;;7.34;;
14890;SDS011;7537;48.014;11.590;2023-09-12T17:14:11;14.46;;;7.51;;
14890;SDS011;7537;48.014;11.590;2023-09-12T17:19:39;7.42;;;7.35;;
14890;SDS011;7537;48.014;11.590;2023-09-12T17:25:07;8.34;;;7.99;;
14890;SDS011;7537;48.014;11.590;2023-09-12T17:30:34;8.66;;;7.36;;
14890;SDS011;7537;48.014;11.590;2023-09-12T17:36:05;9.44;;;8.51;;
14890;SDS011;7537;48.014;11.590;2023-09-12T17:41:33;7.33;;;7.47;;
14890;SDS011;7537;48.014;11.590;2023-09-12T17:47:00;7.63;;;7.81;;
14890;SDS011;7537;48.014;11.590;2023-09-12T17:52:28;9.28;;;8.43;;
14890;SDS011;7537;48.014;11.590;2023-09-12T17:57:55;8.33;;;8.27;;
14890;SDS011;7537;48.014;11.590;2023-09-12T18:03:23;8.44;;;7.71;;
14890;SDS011;7537;48.014;11.590;2023-09-12T18:08:59;7.93;;;7.54;;
14890;SDS011;7537;48.014;11.590;2023-09-12T18:14:32;7.33;;;6.79;;
14890;SDS011;7537;48.014;11.590;2023-09-12T18:20:01;7.92;;;8.01;;
14890;SDS011;7537;48.014;11.590;2023-09-12T18:25:29;8.07;;;8.17;;
14890;SDS011;7537;48.014;11.590;2023-09-12T18:30:56;7.08;;;7.02;;
14890;SDS011;7537;48.014;11.590;2023-09-12T18:36:27;7.42;;;6.81;;
14890;SDS011;7537;48.014;11.590;2023-09-12T18:41:58;6.38;;;6.08;;
14890;SDS011;7537;48.014;11.590;2023-09-12T18:47:25;7.89;;;6.10;;
14890;SDS011;7537;48.014;11.590;2023-09-12T18:53:00;6.71;;;6.16;;
14890;SDS011;7537;48.014;11.590;2023-09-12T18:58:27;4.88;;;5.02;;
14890;SDS011;7537;48.014;11.590;2023-09-12T19:03:55;4.72;;;4.77;;
14890;SDS011;7537;48.014;11.590;2023-09-12T19:09:22;7.83;;;4.99;;
14890;SDS011;7537;48.014;11.590;2023-09-12T19:14:50;5.59;;;5.35;;
14890;SDS011;7537;48.014;11.590;2023-09-12T19:20:17;6.23;;;6.30;;
14890;SDS011;7537;48.014;11.590;2023-09-12T19:25:46;5.05;;;5.22;;
14890;SDS011;7537;48.014;11.590;2023-09-12T19:31:14;7.40;;;5.83;;
14890;SDS011;7537;48.014;11.590;2023-09-12T19:36:51;5.41;;;5.23;;
14890;SDS011;7537;48.014;11.590;2023-09-12T19:42:20;5.05;;;5.19;;
14890;SDS011;7537;48.014;11.590;2023-09-12T19:47:48;6.31;;;4.91;;
14890;SDS011;7537;48.014;11.590;2023-09-12T19:53:16;3.85;;;3.89;;
14890;SDS011;7537;48.014;11.590;2023-09-12T19:58:44;3.43;;;3.57;;
14890;SDS011;7537;48.014;11.590;2023-09-12T20:04:12;3.04;;;3.20;;
14890;SDS011;7537;48.014;11.590;2023-09-12T20:09:40;4.01;;;2.72;;
14890;SDS011;7537;48.014;11.590;2023-09-12T20:15:11;5.16;;;2.38;;
14890;SDS011;7537;48.014;11.590;2023-09-12T20:20:38;2.54;;;2.42;;
14890;SDS011;7537;48.014;11.590;2023-09-12T20:26:06;1.57;;;1.55;;
14890;SDS011;7537;48.014;11.590;2023-09-12T20:31:33;2.21;;;2.28;;
14890;SDS011;7537;48.014;11.590;2023-09-12T20:37:04;2.24;;;1.99;;
14890;SDS011;7537;48.014;11.590;2023-09-12T20:42:32;2.58;;;2.52;;
14890;SDS011;7537;48.014;11.590;2023-09-12T20:48:01;1.78;;;1.92;;
14890;SDS011;7537;48.014;11.590;2023-09-12T20:53:29;2.36;;;2.33;;
14890;SDS011;7537;48.014;11.590;2023-09-12T20:58:57;1.85;;;1.78;;
14890;SDS011;7537;48.014;11.590;2023-09-12T21:04:25;2.45;;;1.96;;
14890;SDS011;7537;48.014;11.590;2023-09-12T21:09:52;1.64;;;1.69;;
14890;SDS011;7537;48.014;11.590;2023-09-12T21:15:19;1.49;;;1.56;;
14890;SDS011;7537;48.014;11.590;2023-09-12T21:20:52;3.22;;;1.62;;
14890;SDS011;7537;48.014;11.590;2023-09-12T21:26:19;3.39;;;1.11;;
14890;SDS011;7537;48.014;11.590;2023-09-12T21:31:48;1.11;;;0.95;;
14890;SDS011;7537;48.014;11.590;2023-09-12T21:37:19;1.50;;;0.94;;
14890;SDS011;7537;48.014;11.590;2023-09-12T21:42:47;1.14;;;1.26;;
14890;SDS011;7537;48.014;11.590;2023-09-12T21:48:14;1.78;;;1.14;;
14890;SDS011;7537;48.014;11.590;2023-09-12T21:53:41;2.63;;;2.11;;
14890;SDS011;7537;48.014;11.590;2023-09-12T21:59:09;1.94;;;1.86;;
14890;SDS011;7537;48.014;11.590;2023-09-12T22:04:36;1.28;;;1.37;;
14890;SDS011;7537;48.014;11.590;2023-09-12T22:10:05;2.32;;;1.95;;
14890;SDS011;7537;48.014;11.590;2023-09-12T22:15:44;3.69;;;1.76;;
14890;SDS011;7537;48.014;11.590;2023-09-12T22:21:12;1.83;;;1.68;;
14890;SDS011;7537;48.014;11.590;2023-09-12T22:26:39;1.26;;;1.31;;
14890;SDS011;7537;48.014;11.590;2023-09-12T22:32:06;2.61;;;1.31;;
14890;SDS011;7537;48.014;11.590;2023-09-12T22:37:37;1.52;;;1.59;;
14890;SDS011;7537;48.014;11.590;2023-09-12T22:43:04;1.36;;;1.35;;
14890;SDS011;7537;48.014;11.590;2023-09-12T22:48:32;1.52;;;1.57;;
14890;SDS011;7537;48.014;11.590;2023-09-12T22:53:59;1.77;;;1.79;;
14890;SDS011;7537;48.014;11.590;2023-09-12T22:59:28;2.77;;;1.77;;
14890;SDS011;7537;48.014;11.590;2023-09-12T23:04:55;2.72;;;1.99;;
14890;SDS011;7537;48.014;11.590;2023-09-12T23:10:22;4.56;;;2.02;;
14890;SDS011;7537;48.014;11.590;2023-09-12T23:15:50;1.85;;;1.83;;
14890;SDS011;7537;48.014;11.590;2023-09-12T23:21:20;2.17;;;2.24;;
14890;SDS011;7537;48.014;11.590;2023-09-12T23:26:47;1.71;;;1.71;;
14890;SDS011;7537;48.014;11.590;2023-09-12T23:32:15;2.02;;;1.28;;
14890;SDS011;7537;48.014;11.590;2023-09-12T23:37:46;1.77;;;1.76;;
14890;SDS011;7537;48.014;11.590;2023-09-12T23:43:13;1.56;;;1.63;;
14890;SDS011;7537;48.014;11.590;2023-09-12T23:48:40;3.69;;;2.26;;
14890;SDS011;7537;48.014;11.590;2023-09-12T23:54:08;1.86;;;1.92;;
14890;SDS011;7537;48.014;11.590;2023-09-12T23:59:35;2.34;;;1.62;;
